Time;durP1;ratioP1;P1;durP2;ratioP2;P2;SDS_P1;SDS_P2;PMS_P1;PMS_P2;Temp;Humidity;BMP_temperature;BMP_pressure;BME280_temperature;BME280_humidity;BME280_pressure;Samples;Min_cycle;Max_cycle;Signal;HPM_P1;HPM_P2
2024/01/04 00:01:24;;;;;;;11.90;4.60;;;;;;;7.08;99.09;98399.05;104710;1291;71526;-56
2024/01/04 00:04:11;;;;;;;10.00;4.40;;;;;;;7.09;99.31;98403.45;104680;1291;61237;-57
2024/01/04 00:06:57;;;;;;;7.30;3.90;;;;;;;7.10;99.12;98401.56;104605;1291;59388;-57
2024/01/04 00:09:43;;;;;;;9.30;3.70;;;;;;;7.10;99.04;98402.08;104658;1292;73321;-57
2024/01/04 00:12:29;;;;;;;6.70;3.60;;;;;;;7.11;99.20;98397.55;104683;1291;69250;-57
2024/01/04 00:15:16;;;;;;;6.50;3.60;;;;;;;7.12;98.96;98398.05;104668;1291;71362;-56
2024/01/04 00:18:03;;;;;;;6.50;3.40;;;;;;;7.14;98.98;98389.90;104669;1291;61237;-57
2024/01/04 00:20:50;;;;;;;7.60;3.70;;;;;;;7.16;98.86;98386.25;104598;1291;61184;-57
2024/01/04 00:23:36;;;;;;;9.30;3.60;;;;;;;7.16;99.02;98387.27;104658;1291;73338;-56
2024/01/04 00:26:22;;;;;;;6.50;3.00;;;;;;;7.17;98.77;98385.00;104655;1291;70541;-57
2024/01/04 00:29:09;;;;;;;8.80;2.90;;;;;;;7.18;98.94;98386.34;104685;1292;70523;-57
2024/01/04 00:31:56;;;;;;;5.10;2.90;;;;;;;7.19;98.68;98388.54;104663;1292;61972;-56
2024/01/04 00:34:43;;;;;;;8.60;2.90;;;;;;;7.19;98.67;98387.67;104687;1291;61395;-57
2024/01/04 00:37:29;;;;;;;6.10;3.10;;;;;;;7.19;98.64;98385.77;104714;1294;73112;-57
2024/01/04 00:40:16;;;;;;;9.90;2.60;;;;;;;7.19;98.75;98388.55;104664;1291;67199;-56
2024/01/04 00:43:04;;;;;;;7.30;2.30;;;;;;;7.19;98.68;98388.36;104697;1291;71147;-57
2024/01/04 00:45:50;;;;;;;6.10;2.30;;;;;;;7.20;98.75;98384.88;104683;1291;61190;-58
2024/01/04 00:48:36;;;;;;;8.80;2.60;;;;;;;7.21;98.73;98386.74;104662;1295;61168;-57
2024/01/04 00:51:22;;;;;;;8.70;2.40;;;;;;;7.22;98.75;98381.56;104684;1291;75462;-56
2024/01/04 00:54:09;;;;;;;6.80;2.30;;;;;;;7.22;98.68;98381.70;104666;1291;67837;-57
2024/01/04 00:56:55;;;;;;;;;;;;;;;7.24;98.57;98383.37;104701;1295;73040;-56
2024/01/04 00:59:41;;;;;;;3.90;1.90;;;;;;;7.25;98.68;98381.27;104644;1291;61168;-56
2024/01/04 01:02:28;;;;;;;5.90;2.60;;;;;;;7.25;98.68;98382.96;104700;1291;63311;-57
2024/01/04 01:05:14;;;;;;;4.70;2.30;;;;;;;7.26;98.65;98382.08;104627;1291;73325;-57
2024/01/04 01:08:01;;;;;;;5.00;2.00;;;;;;;7.28;98.69;98382.48;104627;1291;67475;-57
2024/01/04 01:10:47;;;;;;;5.80;2.10;;;;;;;7.29;98.56;98384.85;104616;1291;71336;-57
2024/01/04 01:13:34;;;;;;;4.70;1.90;;;;;;;7.29;98.64;98386.39;104708;1291;61242;-56
2024/01/04 01:16:20;;;;;;;6.50;2.40;;;;;;;7.31;98.70;98391.11;104720;1291;61185;-57
2024/01/04 01:19:07;;;;;;;9.20;2.20;;;;;;;7.32;98.56;98386.63;104743;1291;74877;-57
2024/01/04 01:21:54;;;;;;;4.20;2.30;;;;;;;7.33;98.63;98385.23;104704;1291;69126;-57
2024/01/04 01:24:40;;;;;;;6.80;2.60;;;;;;;7.33;98.62;98382.31;104674;1291;71277;-57
2024/01/04 01:27:27;;;;;;;3.70;1.60;;;;;;;7.35;98.66;98387.71;104655;1291;61242;-57
2024/01/04 01:30:13;;;;;;;6.10;1.60;;;;;;;7.36;98.63;98389.06;104654;1292;61182;-57
2024/01/04 01:32:59;;;;;;;5.60;1.70;;;;;;;7.35;98.55;98386.86;104697;1291;73334;-56
2024/01/04 01:35:46;;;;;;;7.20;2.00;;;;;;;7.34;98.59;98387.75;104711;1291;70063;-57
2024/01/04 01:38:32;;;;;;;7.80;1.50;;;;;;;7.34;98.52;98387.23;104705;1291;71223;-56
2024/01/04 01:41:18;;;;;;;4.20;2.00;;;;;;;7.34;98.61;98387.42;104701;1291;63024;-57
2024/01/04 01:44:04;;;;;;;5.90;2.10;;;;;;;7.32;98.69;98386.11;104681;1292;61136;-56
2024/01/04 01:46:51;;;;;;;7.50;2.30;;;;;;;7.31;98.62;98389.05;104617;1291;73216;-56
2024/01/04 01:49:37;;;;;;;3.10;1.50;;;;;;;7.29;98.66;98386.91;104716;1296;67449;-57
2024/01/04 01:52:24;;;;;;;5.50;2.00;;;;;;;7.29;98.62;98384.14;104682;1296;72617;-60
2024/01/04 01:55:11;;;;;;;;;;;;;;;7.29;98.75;98387.59;104706;1291;61303;-57
2024/01/04 01:57:58;;;;;;;3.90;2.00;;;;;;;7.29;98.74;98384.86;104685;1292;61248;-57
2024/01/04 02:00:44;;;;;;;;;;;;;;;7.27;98.63;98384.27;106095;1291;73402;-57
2024/01/04 02:03:30;;;;;;;;;;;;;;;7.25;98.67;98381.44;106053;1294;67284;-58
2024/01/04 02:06:16;;;;;;;3.70;1.70;;;;;;;7.24;98.56;98384.57;106036;1291;72559;-58
2024/01/04 02:09:02;;;;;;;6.20;2.80;;;;;;;7.22;98.55;98387.73;106065;1291;59064;-57
2024/01/04 02:11:48;;;;;;;8.90;3.10;;;;;;;7.18;98.62;98385.80;106109;1292;59030;-57
2024/01/04 02:14:34;;;;;;;11.30;3.10;;;;;;;7.18;98.71;98385.33;106069;1292;73209;-58
2024/01/04 02:17:30;;;;;;;7.60;2.90;;;;;;;7.17;98.73;98384.66;106059;1291;68412;-58
2024/01/04 02:20:16;;;;;;;5.60;2.90;;;;;;;7.16;98.59;98386.74;106053;1291;72331;-57
2024/01/04 02:23:03;;;;;;;8.60;3.10;;;;;;;7.15;98.66;98391.08;106078;1291;58922;-58
2024/01/04 02:25:49;;;;;;;9.60;3.50;;;;;;;7.14;98.69;98388.89;106067;1291;58877;-58
2024/01/04 02:28:35;;;;;;;5.10;2.90;;;;;;;7.13;98.81;98389.95;106086;1291;73442;-58
2024/01/04 02:31:22;;;;;;;8.20;2.90;;;;;;;7.12;98.73;98393.76;106069;1291;66913;-58
2024/01/04 02:34:08;;;;;;;8.00;3.00;;;;;;;7.12;98.83;98390.33;105927;1292;71233;-57
2024/01/04 02:36:54;;;;;;;7.60;2.90;;;;;;;7.12;99.02;98386.23;106064;1290;59211;-59
2024/01/04 02:39:40;;;;;;;10.20;3.10;;;;;;;7.13;99.02;98387.05;105971;1291;59346;-58
2024/01/04 02:42:26;;;;;;;7.20;2.80;;;;;;;7.14;98.96;98391.63;106091;1291;73700;-58
2024/01/04 02:45:15;;;;;;;8.10;3.00;;;;;;;7.17;99.17;98392.20;106073;1291;67200;-58
2024/01/04 02:48:02;;;;;;;6.10;2.70;;;;;;;7.17;99.27;98387.38;106080;1291;73292;-58
2024/01/04 02:50:48;;;;;;;5.90;2.60;;;;;;;7.21;99.15;98382.29;106061;1292;59461;-58
2024/01/04 02:53:35;;;;;;;7.00;3.20;;;;;;;7.21;99.01;98379.02;105954;1291;58817;-58
2024/01/04 02:56:21;;;;;;;6.80;2.70;;;;;;;7.20;99.07;98372.02;106084;1291;73407;-58
2024/01/04 02:59:07;;;;;;;5.60;2.40;;;;;;;7.22;99.20;98378.47;106110;1291;68357;-58
2024/01/04 03:01:53;;;;;;;7.60;2.60;;;;;;;7.26;99.17;98378.67;106064;1295;71326;-57
2024/01/04 03:04:42;;;;;;;4.60;2.00;;;;;;;7.25;99.32;98379.19;106068;1291;58978;-58
2024/01/04 03:07:28;;;;;;;8.90;2.60;;;;;;;7.28;99.34;98379.23;106064;1291;59052;-58
2024/01/04 03:10:14;;;;;;;5.90;2.40;;;;;;;7.29;99.18;98377.81;106073;1291;73444;-58
2024/01/04 03:13:00;;;;;;;4.60;2.40;;;;;;;7.31;99.22;98378.25;106101;1291;67409;-58
2024/01/04 03:15:46;;;;;;;5.60;2.40;;;;;;;7.34;99.11;98381.95;106107;1291;74039;-58
2024/01/04 03:18:34;;;;;;;5.30;2.40;;;;;;;7.33;99.19;98376.80;32445;1291;10023394;-58
2024/01/04 03:21:20;;;;;;;6.80;2.50;;;;;;;7.33;99.13;98379.23;106075;1291;73492;-58
2024/01/04 03:24:06;;;;;;;5.90;2.10;;;;;;;7.31;99.06;98377.06;106083;1291;68814;-58
2024/01/04 03:26:52;;;;;;;3.70;2.20;;;;;;;7.30;99.12;98376.41;106035;1291;71238;-58
2024/01/04 03:29:38;;;;;;;7.20;2.40;;;;;;;7.29;99.29;98377.84;106066;1291;59207;-58
2024/01/04 03:32:24;;;;;;;4.10;2.10;;;;;;;7.28;99.16;98376.48;106069;1291;59587;-58
2024/01/04 03:35:10;;;;;;;5.90;2.20;;;;;;;7.28;99.14;98375.11;106081;1291;73111;-57
2024/01/04 03:37:56;;;;;;;8.60;2.10;;;;;;;7.29;99.20;98373.21;106048;1291;68339;-58
2024/01/04 03:40:52;;;;;;;;;;;;;;;;;;;;;
2024/01/04 03:43:38;;;;;;;11.20;2.50;;;;;;;7.27;99.20;98377.55;106069;1291;59380;-58
2024/01/04 03:46:24;;;;;;;4.00;1.90;;;;;;;7.28;99.16;98378.23;106067;1291;59203;-58
2024/01/04 03:49:11;;;;;;;7.90;2.50;;;;;;;7.29;99.14;98379.39;105756;1292;387093;-58
2024/01/04 03:51:57;;;;;;;5.10;2.30;;;;;;;7.27;99.05;98383.05;106049;1291;66470;-58
2024/01/04 03:54:43;;;;;;;7.50;2.00;;;;;;;7.27;98.99;98380.98;106086;1291;72038;-57
2024/01/04 03:57:29;;;;;;;4.20;1.50;;;;;;;7.26;99.11;98376.27;106078;1291;59236;-58
2024/01/04 04:00:16;;;;;;;3.90;1.70;;;;;;;7.26;99.13;98375.93;106070;1291;59089;-58
2024/01/04 04:03:02;;;;;;;5.40;1.90;;;;;;;7.24;99.09;98376.15;106071;1291;73232;-58
2024/01/04 04:05:49;;;;;;;5.70;1.90;;;;;;;7.23;99.17;98377.23;105938;1294;68447;-58
2024/01/04 04:08:35;;;;;;;4.20;1.70;;;;;;;7.23;99.10;98379.48;106063;1292;71343;-58
2024/01/04 04:11:21;;;;;;;3.90;1.70;;;;;;;7.22;99.22;98382.58;106073;1292;58912;-58
2024/01/04 04:14:09;;;;;;;3.30;1.30;;;;;;;7.22;99.24;98380.20;106077;1291;59209;-58
2024/01/04 04:16:55;;;;;;;6.90;1.60;;;;;;;7.21;99.29;98381.92;106072;1291;73379;-57
2024/01/04 04:19:41;;;;;;;5.10;1.70;;;;;;;7.23;99.23;98377.41;106095;1291;66717;-58
2024/01/04 04:22:27;;;;;;;5.80;1.90;;;;;;;7.23;99.23;98377.41;106085;1291;71198;-58
2024/01/04 04:25:13;;;;;;;6.40;1.60;;;;;;;7.20;99.32;98382.66;106079;1291;58392;-58
2024/01/04 04:28:02;;;;;;;5.00;1.30;;;;;;;7.20;99.42;98378.55;106105;1291;59278;-58
2024/01/04 04:30:48;;;;;;;7.00;1.50;;;;;;;7.22;99.31;98381.54;106074;1291;73366;-58
2024/01/04 04:33:34;;;;;;;6.60;1.80;;;;;;;7.23;99.26;98387.18;106065;1291;67474;-58
2024/01/04 04:36:21;;;;;;;4.40;1.90;;;;;;;7.24;99.35;98387.48;106058;1291;72595;-58
2024/01/04 04:39:08;;;;;;;3.60;1.60;;;;;;;7.24;99.37;98388.69;106064;1291;59112;-57
2024/01/04 04:41:54;;;;;;;3.40;1.30;;;;;;;7.25;99.48;98387.09;106038;1291;59205;-58
2024/01/04 04:44:41;;;;;;;3.20;1.70;;;;;;;7.27;99.38;98389.22;106046;1291;74520;-58
2024/01/04 04:47:27;;;;;;;3.10;1.50;;;;;;;7.28;99.30;98390.40;106083;1291;68760;-58
2024/01/04 04:50:13;;;;;;;6.70;1.50;;;;;;;7.29;99.37;98392.38;106043;1291;72039;-58
2024/01/04 04:52:59;;;;;;;4.40;1.60;;;;;;;7.29;99.49;98391.69;106072;1291;58340;-58
2024/01/04 04:55:45;;;;;;;5.70;1.50;;;;;;;7.32;99.43;98397.61;106069;1291;58961;-58
2024/01/04 04:58:31;;;;;;;3.30;1.30;;;;;;;7.31;99.47;98400.03;106042;1291;74273;-58
2024/01/04 05:01:17;;;;;;;3.10;1.70;;;;;;;7.31;99.42;98401.55;106064;1292;67423;-57
2024/01/04 05:04:04;;;;;;;4.40;1.50;;;;;;;7.32;99.37;98402.55;106038;1291;72516;-58
2024/01/04 05:06:50;;;;;;;4.00;2.10;;;;;;;7.33;99.38;98406.11;106092;1291;59250;-58
2024/01/04 05:09:36;;;;;;;5.70;1.60;;;;;;;7.34;99.38;98404.21;106035;1292;59000;-58
2024/01/04 05:12:22;;;;;;;2.60;1.20;;;;;;;7.34;99.50;98404.88;106082;1292;73439;-58
2024/01/04 05:15:09;;;;;;;2.60;1.40;;;;;;;7.35;99.32;98407.24;106063;1292;68483;-58
2024/01/04 05:17:55;;;;;;;5.10;1.60;;;;;;;7.37;99.47;98407.88;106062;1291;72485;-58
2024/01/04 05:20:41;;;;;;;2.40;1.60;;;;;;;7.37;99.43;98410.45;106065;1291;59184;-58
2024/01/04 05:23:27;;;;;;;5.90;1.80;;;;;;;7.37;99.48;98408.54;106084;1292;62005;-57
2024/01/04 05:26:21;;;;;;;5.50;1.90;;;;;;;7.38;99.47;98405.77;106085;1291;74978;-58
2024/01/04 05:29:09;;;;;;;3.70;1.50;;;;;;;7.37;99.46;98406.68;105990;1291;66840;-58
2024/01/04 05:31:55;;;;;;;2.40;1.60;;;;;;;7.37;99.49;98411.62;106021;1291;71744;-57
2024/01/04 05:34:44;;;;;;;2.70;1.60;;;;;;;7.39;99.51;98410.55;106048;1291;59204;-59
2024/01/04 05:37:30;;;;;;;2.10;1.70;;;;;;;7.37;99.53;98410.96;106053;1291;59120;-59
2024/01/04 05:40:16;;;;;;;9.80;2.50;;;;;;;7.37;99.46;98413.02;106046;1292;74861;-59
2024/01/04 05:43:06;;;;;;;3.00;1.80;;;;;;;7.35;99.48;98413.41;106062;1291;67382;-59
2024/01/04 05:45:52;;;;;;;3.00;2.20;;;;;;;7.35;99.53;98415.14;106001;1291;71359;-58
2024/01/04 05:48:38;;;;;;;3.10;1.80;;;;;;;7.35;99.39;98419.40;106018;1291;59081;-58
2024/01/04 05:51:24;;;;;;;4.00;1.80;;;;;;;7.35;99.41;98419.26;106078;1292;59057;-59
2024/01/04 05:54:10;;;;;;;4.90;2.30;;;;;;;7.35;99.48;98426.79;106057;1292;73972;-58
2024/01/04 05:56:56;;;;;;;3.20;1.90;;;;;;;7.34;99.48;98433.52;106035;1295;67172;-58
2024/01/04 05:59:42;;;;;;;5.50;1.70;;;;;;;7.34;99.42;98435.73;106043;1291;71491;-57
2024/01/04 06:02:29;;;;;;;3.60;2.10;;;;;;;7.35;99.52;98437.43;106019;1292;59402;-58
2024/01/04 06:05:15;;;;;;;2.70;1.70;;;;;;;7.34;99.66;98441.74;106047;1292;59055;-58
2024/01/04 06:08:01;;;;;;;3.60;2.50;;;;;;;7.36;99.52;98439.96;106064;1291;73412;-58
2024/01/04 06:10:47;;;;;;;4.10;2.10;;;;;;;7.35;99.50;98446.14;105354;1292;67430;-56
2024/01/04 06:13:33;;;;;;;2.60;1.90;;;;;;;7.37;99.49;98447.11;104615;1293;74136;-57
2024/01/04 06:16:20;;;;;;;3.30;2.70;;;;;;;7.37;99.51;98448.67;104691;1291;61393;-57
2024/01/04 06:19:06;;;;;;;4.40;1.90;;;;;;;7.34;99.49;98450.82;104680;1291;61145;-57
2024/01/04 06:21:52;;;;;;;6.40;2.20;;;;;;;7.34;99.41;98450.31;104708;1291;75447;-56
2024/01/04 06:24:39;;;;;;;3.70;1.70;;;;;;;7.33;99.41;98451.73;104670;1292;70147;-57
2024/01/04 06:27:25;;;;;;;5.20;2.40;;;;;;;7.31;99.37;98456.94;104578;1292;71320;-57
2024/01/04 06:30:12;;;;;;;6.40;2.50;;;;;;;7.30;99.52;98457.80;104658;1295;61200;-54
2024/01/04 06:32:58;;;;;;;4.00;2.40;;;;;;;7.29;99.58;98463.83;104522;1291;61357;-56
2024/01/04 06:35:44;;;;;;;5.30;2.40;;;;;;;7.29;99.64;98467.45;104610;1291;73266;-56
2024/01/04 06:38:31;;;;;;;6.60;2.60;;;;;;;7.29;99.58;98469.34;104734;1294;67295;-57
2024/01/04 06:41:19;;;;;;;6.00;3.10;;;;;;;7.28;99.38;98468.17;104641;1297;72116;-58
2024/01/04 06:44:05;;;;;;;8.00;3.60;;;;;;;7.26;99.35;98470.48;106007;1291;60058;-58
2024/01/04 06:46:54;;;;;;;7.40;2.50;;;;;;;7.25;99.45;98470.87;106110;1292;59274;-57
2024/01/04 06:49:41;;;;;;;9.70;2.60;;;;;;;7.24;99.58;98472.80;105491;1292;73084;-56
2024/01/04 06:52:27;;;;;;;3.40;2.30;;;;;;;7.25;99.47;98467.27;104671;1292;67584;-56
2024/01/04 06:55:14;;;;;;;7.00;2.70;;;;;;;7.24;99.62;98470.39;104709;1292;71218;-57
2024/01/04 06:58:00;;;;;;;4.00;2.30;;;;;;;7.23;99.83;98465.98;104702;1292;61186;-57
2024/01/04 07:00:47;;;;;;;4.50;2.30;;;;;;;7.22;99.80;98465.67;104733;1291;60797;-57
2024/01/04 07:03:33;;;;;;;5.30;2.50;;;;;;;7.20;100.00;98468.16;104690;1291;73329;-58
2024/01/04 07:06:20;;;;;;;7.30;2.30;;;;;;;7.18;100.00;98471.83;104703;1292;67340;-56
2024/01/04 07:09:06;;;;;;;4.40;2.40;;;;;;;7.17;100.00;98470.15;104681;1292;72310;-57
2024/01/04 07:11:52;;;;;;;5.50;3.00;;;;;;;7.17;100.00;98469.47;104695;1292;61017;-57
2024/01/04 07:14:39;;;;;;;6.70;2.80;;;;;;;7.16;100.00;98466.75;104662;1292;62578;-57
2024/01/04 07:17:25;;;;;;;3.00;2.40;;;;;;;7.15;100.00;98467.30;104637;1291;73200;-57
2024/01/04 07:20:12;;;;;;;6.40;2.60;;;;;;;7.16;99.99;98467.11;104687;1291;66320;-55
2024/01/04 07:22:58;;;;;;;3.10;2.60;;;;;;;7.17;99.99;98471.37;104707;1292;72122;-57
2024/01/04 07:25:44;;;;;;;;;;;;;;;7.15;100.00;98470.57;104751;1293;61281;-55
2024/01/04 07:28:31;;;;;;;;;;;;;;;7.14;100.00;98472.83;104723;1291;61221;-57
2024/01/04 07:31:17;;;;;;;5.20;2.50;;;;;;;7.15;100.00;98469.21;104718;1295;77144;-57
2024/01/04 07:34:03;;;;;;;3.40;2.40;;;;;;;7.14;100.00;98467.35;100939;1292;5004030;-57
2024/01/04 07:36:50;;;;;;;5.10;2.60;;;;;;;7.13;100.00;98468.94;104799;1297;71797;-57
2024/01/04 07:39:36;;;;;;;4.50;2.80;;;;;;;7.13;100.00;98468.61;104929;1292;61199;-57
2024/01/04 07:42:22;;;;;;;3.50;2.40;;;;;;;7.12;100.00;98466.23;102278;1296;5002874;-58
2024/01/04 07:45:09;;;;;;;5.20;2.70;;;;;;;7.13;100.00;98472.36;105470;1291;73298;-57
2024/01/04 07:47:57;;;;;;;3.80;2.30;;;;;;;7.14;100.00;98468.37;106040;1292;67427;-58
2024/01/04 07:50:43;;;;;;;3.80;2.70;;;;;;;7.16;100.00;98468.13;106002;1292;72599;-58
2024/01/04 07:53:30;;;;;;;3.80;2.70;;;;;;;7.16;100.00;98469.34;105080;1292;61214;-58
2024/01/04 07:56:16;;;;;;;8.80;3.10;;;;;;;7.18;100.00;98473.20;104710;1292;61349;-56
2024/01/04 07:59:02;;;;;;;3.90;2.90;;;;;;;7.17;100.00;98476.48;104693;1291;73150;-57
2024/01/04 08:01:49;;;;;;;4.50;3.20;;;;;;;7.17;100.00;98471.69;104626;1291;69559;-57
2024/01/04 08:04:35;;;;;;;;;;;;;;;7.17;100.00;98475.48;104772;1291;71275;-57
2024/01/04 08:07:21;;;;;;;;;;;;;;;7.13;100.00;98474.75;104618;1292;59186;-57
2024/01/04 08:10:09;;;;;;;5.30;2.90;;;;;;;7.12;100.00;98475.65;104722;1292;61848;-57
2024/01/04 08:12:56;;;;;;;5.00;3.70;;;;;;;7.10;100.00;98470.41;105036;1293;75465;-58
2024/01/04 08:15:42;;;;;;;3.80;2.60;;;;;;;7.07;100.00;98473.42;104690;1292;67256;-58
2024/01/04 08:18:29;;;;;;;3.40;2.40;;;;;;;7.05;100.00;98474.56;104634;1292;72965;-58
2024/01/04 08:21:16;;;;;;;4.60;2.80;;;;;;;7.02;100.00;98476.72;104486;1292;326119;-57
2024/01/04 08:24:03;;;;;;;5.90;2.90;;;;;;;7.01;100.00;98477.94;104736;1296;63620;-56
2024/01/04 08:26:50;;;;;;;4.80;2.70;;;;;;;7.02;100.00;98471.75;102038;1292;5003583;-58
2024/01/04 08:29:36;;;;;;;3.90;2.60;;;;;;;7.03;100.00;98474.96;105947;1292;67371;-58
2024/01/04 08:32:22;;;;;;;3.80;2.50;;;;;;;7.04;100.00;98475.95;104715;1293;71245;-58
2024/01/04 08:35:08;;;;;;;4.60;3.20;;;;;;;7.06;100.00;98481.69;104725;1293;61410;-58
2024/01/04 08:37:55;;;;;;;4.50;2.30;;;;;;;7.08;100.00;98484.02;104711;1291;61182;-57
2024/01/04 08:40:42;;;;;;;7.10;2.30;;;;;;;7.10;100.00;98482.25;104691;1295;77214;-55
2024/01/04 08:43:28;;;;;;;2.30;2.10;;;;;;;7.12;100.00;98486.11;104709;1298;68668;-57
2024/01/04 08:46:16;;;;;;;2.90;2.70;;;;;;;7.13;100.00;98490.88;104557;1297;72340;-57
2024/01/04 08:49:04;;;;;;;3.40;2.50;;;;;;;7.13;100.00;98493.95;104720;1292;61187;-57
2024/01/04 08:51:50;;;;;;;3.10;2.20;;;;;;;7.13;100.00;98489.33;104764;1297;61015;-58
2024/01/04 08:54:36;;;;;;;10.80;3.20;;;;;;;7.13;100.00;98492.05;104740;1297;76132;-57
2024/01/04 08:57:23;;;;;;;2.80;2.40;;;;;;;7.13;100.00;98495.47;104692;1295;69320;-57
2024/01/04 09:00:10;;;;;;;;;;;;;;;7.15;100.00;98494.88;104663;1293;71312;-57
2024/01/04 09:02:56;;;;;;;4.10;2.50;;;;;;;7.16;100.00;98500.16;106064;1294;59261;-58
2024/01/04 09:05:45;;;;;;;2.50;2.30;;;;;;;7.16;100.00;98504.11;106038;1292;59796;-58
2024/01/04 09:08:33;;;;;;;3.30;2.20;;;;;;;7.18;100.00;98508.33;106080;1292;75097;-58
2024/01/04 09:11:19;;;;;;;5.00;2.40;;;;;;;7.20;100.00;98507.41;106031;1291;68058;-58
2024/01/04 09:14:11;;;;;;;5.40;2.70;;;;;;;7.21;100.00;98506.01;106042;1292;71294;-58
2024/01/04 09:16:57;;;;;;;3.50;2.80;;;;;;;7.22;100.00;98510.73;106049;1292;58924;-61
2024/01/04 09:19:43;;;;;;;4.50;2.70;;;;;;;7.25;100.00;98511.69;106094;1292;59175;-58
2024/01/04 09:22:29;;;;;;;4.60;2.80;;;;;;;7.28;100.00;98512.91;106078;1293;74567;-58
2024/01/04 09:25:23;;;;;;;3.20;2.20;;;;;;;7.33;100.00;98519.42;106086;1295;67572;-58
2024/01/04 09:28:09;;;;;;;2.20;1.90;;;;;;;7.38;100.00;98521.81;106025;1291;71445;-58
2024/01/04 09:30:55;;;;;;;2.60;2.40;;;;;;;7.41;100.00;98525.47;106028;1292;59038;-58
2024/01/04 09:33:42;;;;;;;6.00;2.00;;;;;;;7.47;100.00;98526.45;106084;1292;59287;-58
2024/01/04 09:36:28;;;;;;;5.50;1.90;;;;;;;7.53;100.00;98530.17;105969;1292;73296;-58
2024/01/04 09:39:17;;;;;;;;;;;;;;;7.57;100.00;98527.79;104692;1293;66298;-57
2024/01/04 09:42:06;;;;;;;3.30;2.10;;;;;;;7.62;100.00;98527.59;104610;1298;71408;-57
2024/01/04 09:44:54;;;;;;;6.80;2.20;;;;;;;7.61;100.00;98527.98;104761;1291;60071;-56
2024/01/04 09:47:42;;;;;;;3.00;1.90;;;;;;;7.59;100.00;98528.73;104732;1295;61292;-58
2024/01/04 09:50:29;;;;;;;6.20;2.60;;;;;;;7.59;100.00;98530.95;104691;1293;73340;-56
2024/01/04 09:53:17;;;;;;;;;;;;;;;7.57;100.00;98533.59;104571;1291;69956;-56
2024/01/04 09:56:04;;;;;;;2.50;2.10;;;;;;;7.58;100.00;98533.74;104674;1295;73716;-57
2024/01/04 09:58:50;;;;;;;3.60;1.80;;;;;;;7.55;100.00;98533.52;106058;1292;59707;-58
2024/01/04 10:01:38;;;;;;;3.20;1.70;;;;;;;7.52;100.00;98532.44;106103;1294;60208;-58
2024/01/04 10:04:24;;;;;;;1.50;1.40;;;;;;;7.52;100.00;98531.57;106058;1292;73206;-60
2024/01/04 10:07:16;;;;;;;;;;;;;;;7.49;100.00;98535.29;106088;1292;68639;-58
2024/01/04 10:10:08;;;;;;;3.50;1.50;;;;;;;7.47;100.00;98531.42;105496;1291;71377;-56
2024/01/04 10:12:56;;;;;;;2.80;1.20;;;;;;;7.53;100.00;98533.94;104680;1292;61378;-57
2024/01/04 10:15:47;;;;;;;3.70;1.60;;;;;;;7.56;100.00;98536.89;105185;1293;310723;-57
2024/01/04 10:18:35;;;;;;;2.20;1.20;;;;;;;7.59;100.00;98536.97;104884;1292;73401;-56
2024/01/04 10:21:21;;;;;;;1.50;1.00;;;;;;;7.60;100.00;98531.77;104524;1293;69248;-56
2024/01/04 10:24:10;;;;;;;1.40;1.20;;;;;;;7.59;99.94;98539.17;104557;1297;74079;-56
2024/01/04 10:27:00;;;;;;;2.40;1.10;;;;;;;7.52;99.49;98538.09;104617;1294;61740;-56
2024/01/04 10:29:51;;;;;;;2.10;1.40;;;;;;;7.46;99.18;98547.23;105967;1293;60210;-58
2024/01/04 10:32:38;;;;;;;1.10;0.80;;;;;;;7.38;99.29;98556.95;105983;1293;73670;-58
2024/01/04 10:35:29;;;;;;;1.20;1.00;;;;;;;7.21;99.75;98565.13;105986;1293;68615;-58
2024/01/04 10:38:15;;;;;;;2.10;1.00;;;;;;;7.07;99.99;98561.67;104817;1293;72494;-56
2024/01/04 10:41:02;;;;;;;23.50;5.40;;;;;;;6.96;99.87;98561.88;104454;1295;61684;-57
2024/01/04 10:43:48;;;;;;;0.90;0.50;;;;;;;6.78;99.25;98566.61;104556;1293;61304;-57
2024/01/04 10:46:36;;;;;;;1.30;0.50;;;;;;;6.67;99.32;98566.98;104565;1296;73318;-57
2024/01/04 10:49:23;;;;;;;1.00;0.60;;;;;;;6.57;99.25;98570.21;105994;1295;67277;-57
2024/01/04 10:52:15;;;;;;;1.10;0.60;;;;;;;6.49;99.35;98574.05;105960;1292;72608;-58
2024/01/04 10:55:02;;;;;;;2.00;1.00;;;;;;;6.47;99.42;98578.92;105971;1293;58908;-58
2024/01/04 10:57:50;;;;;;;1.00;0.70;;;;;;;6.46;99.32;98580.33;105942;1293;60368;-57
2024/01/04 11:00:36;;;;;;;0.70;0.60;;;;;;;6.43;99.14;98583.50;105917;1293;75122;-58
2024/01/04 11:03:23;;;;;;;1.30;0.80;;;;;;;6.42;99.09;98582.00;105986;1294;66830;-57
2024/01/04 11:06:10;;;;;;;1.70;0.90;;;;;;;6.43;98.76;98578.38;105859;1294;71390;-58
2024/01/04 11:08:57;;;;;;;1.90;1.20;;;;;;;6.36;97.51;98576.90;105919;1294;59018;-57
2024/01/04 11:11:44;;;;;;;5.10;1.10;;;;;;;6.25;96.82;98576.73;105960;1293;59543;-58
2024/01/04 11:14:30;;;;;;;0.40;0.30;;;;;;;6.12;95.24;98575.79;105955;1293;73310;-56
2024/01/04 11:17:38;;;;;;;0.50;0.40;;;;;;;6.01;94.33;98576.31;105922;1293;67245;-57
2024/01/04 11:20:58;;;;;;;1.70;0.50;;;;;;;5.91;94.14;98585.29;105908;1293;73898;-57
2024/01/04 11:23:49;;;;;;;1.30;0.40;;;;;;;5.87;94.20;98581.80;105936;1292;59389;-57
2024/01/04 11:27:04;;;;;;;29.70;20.20;;;;;;;5.85;94.22;98582.02;105944;1292;59522;-57
2024/01/04 11:29:50;;;;;;;0.40;0.30;;;;;;;5.79;93.88;98581.17;105944;1292;73428;-58
2024/01/04 11:32:36;;;;;;;0.80;0.50;;;;;;;5.77;94.34;98580.20;105831;1294;67333;-57
2024/01/04 11:35:22;;;;;;;0.30;0.20;;;;;;;5.75;93.84;98580.27;105884;1293;70286;-57
2024/01/04 11:38:08;;;;;;;0.70;0.50;;;;;;;5.70;93.03;98583.55;105875;1292;59311;-58
2024/01/04 11:40:54;;;;;;;2.40;1.00;;;;;;;5.73;93.32;98588.36;105899;1292;58904;-58
2024/01/04 11:43:43;;;;;;;0.50;0.50;;;;;;;5.74;93.28;98589.02;105875;1294;75119;-58
2024/01/04 11:46:32;;;;;;;1.00;0.50;;;;;;;5.78;93.64;98592.49;105896;1293;67472;-58
2024/01/04 11:49:19;;;;;;;0.60;0.50;;;;;;;5.81;92.57;98593.61;105761;1293;71271;-58
2024/01/04 11:52:07;;;;;;;;;;;;;;;5.87;92.95;98593.08;105933;1294;59366;-57
2024/01/04 11:54:54;;;;;;;0.60;0.50;;;;;;;5.93;93.14;98592.59;105954;1292;59756;-58
2024/01/04 11:57:41;;;;;;;1.10;0.60;;;;;;;6.06;92.98;98594.27;105930;1293;73148;-58
2024/01/04 12:00:33;;;;;;;0.80;0.60;;;;;;;6.30;93.45;98595.73;105920;1293;68458;-57
2024/01/04 12:03:22;;;;;;;1.00;0.70;;;;;;;6.95;93.46;98591.88;105938;1291;72575;-58
2024/01/04 12:06:09;;;;;;;1.00;0.80;;;;;;;7.26;92.95;98593.36;105946;1294;59132;-58
2024/01/04 12:09:01;;;;;;;1.40;0.80;;;;;;;7.16;91.12;98596.96;105954;1297;60253;-58
2024/01/04 12:11:55;;;;;;;0.50;0.50;;;;;;;6.97;91.06;98596.27;105923;1292;75098;-58
2024/01/04 12:14:41;;;;;;;1.00;0.70;;;;;;;6.77;91.05;98602.59;105806;1294;68353;-58
2024/01/04 12:17:27;;;;;;;1.10;0.70;;;;;;;6.57;91.48;98602.04;105892;1293;72394;-57
2024/01/04 12:20:13;;;;;;;0.60;0.30;;;;;;;6.40;91.06;98602.10;105899;1293;59373;-57
2024/01/04 12:23:01;;;;;;;63.60;28.50;;;;;;;6.22;90.93;98614.81;105916;1293;60136;-58
2024/01/04 12:25:59;;;;;;;63.60;28.50;;;;;;;6.04;90.30;98615.70;56047;1297;10002069;-58
2024/01/04 12:29:07;;;;;;;0.30;0.30;;;;;;;5.87;90.74;98614.80;105837;1292;65952;-57
2024/01/04 12:31:54;;;;;;;1.60;0.40;;;;;;;5.83;91.37;98614.58;105928;1293;60007;-58
2024/01/04 12:34:45;;;;;;;0.80;0.40;;;;;;;5.90;91.63;98619.19;105939;1294;73541;-57
2024/01/04 12:37:31;;;;;;;2.20;0.50;;;;;;;5.90;91.17;98622.95;105933;1292;68688;-57
2024/01/04 12:40:17;;;;;;;1.20;0.40;;;;;;;5.82;90.54;98624.87;105608;1292;71207;-57
2024/01/04 12:43:03;;;;;;;1.50;0.80;;;;;;;5.77;91.25;98627.75;105883;1293;58981;-58
2024/01/04 12:46:05;;;;;;;1.40;0.80;;;;;;;5.73;89.72;98634.38;105908;1293;59252;-58
2024/01/04 12:48:52;;;;;;;2.10;1.20;;;;;;;5.60;89.33;98643.29;105917;1292;74819;-57
2024/01/04 12:51:39;;;;;;;;;;;;;;;5.55;89.63;98644.97;105970;1293;68327;-57
2024/01/04 12:54:25;;;;;;;0.80;0.60;;;;;;;5.47;89.69;98651.50;105912;1294;72609;-56
2024/01/04 12:57:11;;;;;;;0.90;0.50;;;;;;;5.43;89.87;98651.27;105951;1293;59560;-56
2024/01/04 12:59:57;;;;;;;4.40;2.10;;;;;;;5.42;89.57;98656.94;105878;1294;59369;-56
2024/01/04 13:02:43;;;;;;;3.20;1.60;;;;;;;5.26;87.62;98660.24;105847;1293;74387;-57
2024/01/04 13:05:29;;;;;;;1.50;0.80;;;;;;;5.11;87.93;98663.58;105872;1292;67698;-57
2024/01/04 13:08:15;;;;;;;0.30;0.30;;;;;;;4.99;88.01;98662.67;105927;1292;72537;-57